This is the latest recevied weather packets stored in our database for station/object KE0FIN. If no packets are shown the sender has not sent any weather packets the latest 10 day(s).
| Time | Temp. | Humidity | Pressure | Rain* | Wind** | Luminosity | Snow |
|---|---|---|---|---|---|---|---|
| 1777943252 | 25° C | 50% | 1052.4 hPa | 0 mm | - | 4 W/m² | - |
| 1777942948 | 25.56° C | 49% | 1052.4 hPa | 0 mm | - | 6 W/m² | - |
| 1777942645 | 25.56° C | 48% | 1052.3 hPa | 0 mm | - | 9 W/m² | - |
| 1777942342 | 25.56° C | 48% | 1052.2 hPa | 0 mm | - | 11 W/m² | - |
| 1777942039 | 25.56° C | 47% | 1052.3 hPa | 0 mm | - | 14 W/m² | - |
| 1777941736 | 26.11° C | 47% | 1052.1 hPa | 0 mm | - | 17 W/m² | - |
| 1777941433 | 26.11° C | 46% | 1051.8 hPa | 0 mm | - | 23 W/m² | - |
| 1777941131 | 26.11° C | 46% | 1051.9 hPa | 0 mm | - | 31 W/m² | - |
| 1777940827 | 26.11° C | 46% | 1052.1 hPa | 0 mm | - | 37 W/m² | - |
| 1777940525 | 26.67° C | 46% | 1052.3 hPa | 0 mm | - | 38 W/m² | - |
| 1777940221 | 26.67° C | 45% | 1052.2 hPa | 0 mm | - | 31 W/m² | - |
| 1777939919 | 26.67° C | 45% | 1052.3 hPa | 0 mm | - | 45 W/m² | - |
| 1777939616 | 26.67° C | 45% | 1052.7 hPa | 0 mm | - | 44 W/m² | - |
| 1777939314 | 26.67° C | 45% | 1052.6 hPa | 0 mm | - | 57 W/m² | - |
| 1777939010 | 27.22° C | 44% | 1052.5 hPa | 0 mm | - | 59 W/m² | - |
| 1777938706 | 27.22° C | 44% | 1052.4 hPa | 0 mm | - | 67 W/m² | - |
| 1777938404 | 27.22° C | 43% | 1052.4 hPa | 0 mm | - | 72 W/m² | - |
| 1777938101 | 27.78° C | 43% | 1052.5 hPa | 0 mm | - | 77 W/m² | - |
| 1777937797 | 27.78° C | 43% | 1052.3 hPa | 0 mm | - | 99 W/m² | - |
| 1777937493 | 27.78° C | 43% | 1052.5 hPa | 0 mm | - | 122 W/m² | - |
| 1777937191 | 27.78° C | 42% | 1052.5 hPa | 0 mm | - | 116 W/m² | - |
| 1777936887 | 28.33° C | 42% | 1052.4 hPa | 0 mm | - | 149 W/m² | - |
| 1777936584 | 28.89° C | 41% | 1052.5 hPa | 0 mm | - | 129 W/m² | - |
| 1777936280 | 28.89° C | 41% | 1052.2 hPa | 0 mm | - | 177 W/m² | - |
| 1777935976 | 28.33° C | 41% | 1052.6 hPa | 0 mm | - | 131 W/m² | - |
* Rain latest hour (hover to see other rain measurements)
** Current wind speed in m/s (hover to see current wind gust speed)